Time;durP1;ratioP1;P1;durP2;ratioP2;P2;SDS_P1;SDS_P2;PMS_P1;PMS_P2;Temp;Humidity;BMP_temperature;BMP_pressure;BME280_temperature;BME280_humidity;BME280_pressure;Samples;Min_cycle;Max_cycle;Signal;HPM_P1;HPM_P2
2023/04/04 00:00:45;;;;;;;3.83;1.80;;;19.00;52.00;;;;;;5012549;28;20213;-49
2023/04/04 00:03:15;;;;;;;2.80;1.85;;;19.00;52.00;;;;;;5014066;28;20200;-51
2023/04/04 00:05:48;;;;;;;2.70;1.88;;;19.00;52.00;;;;;;5012941;28;20232;-51
2023/04/04 00:08:19;;;;;;;4.13;2.05;;;19.10;52.00;;;;;;5013929;28;20196;-51
2023/04/04 00:10:49;;;;;;;3.17;2.08;;;19.10;52.00;;;;;;5014246;28;20209;-50
2023/04/04 00:13:20;;;;;;;2.20;1.70;;;19.20;52.00;;;;;;5013051;28;20324;-52
2023/04/04 00:15:51;;;;;;;3.42;1.88;;;19.20;52.10;;;;;;5013670;28;20665;-50
2023/04/04 00:18:21;;;;;;;3.53;2.15;;;19.30;52.10;;;;;;5012829;28;20216;-53
2023/04/04 00:20:54;;;;;;;4.18;2.28;;;19.30;52.20;;;;;;5013954;28;20704;-51
2023/04/04 00:23:24;;;;;;;2.88;1.90;;;19.30;52.20;;;;;;5012758;28;20204;-49
2023/04/04 00:25:55;;;;;;;2.60;1.77;;;19.30;52.20;;;;;;5002960;28;20216;-49
2023/04/04 00:28:26;;;;;;;3.53;1.90;;;19.40;52.30;;;;;;4993327;28;20657;-52
2023/04/04 00:30:57;;;;;;;3.58;1.83;;;19.40;52.30;;;;;;4994869;28;20694;-50
2023/04/04 00:33:28;;;;;;;2.78;1.80;;;19.40;52.30;;;;;;4994012;28;20673;-51
2023/04/04 00:36:00;;;;;;;4.18;2.25;;;19.50;52.30;;;;;;5006383;28;20700;-49
2023/04/04 00:38:31;;;;;;;3.53;2.33;;;19.50;52.20;;;;;;5013323;28;20192;-56
2023/04/04 00:41:02;;;;;;;4.38;1.92;;;19.50;52.20;;;;;;5011523;28;20220;-55
2023/04/04 00:43:33;;;;;;;2.38;1.58;;;19.60;52.30;;;;;;5014084;28;20208;-53
2023/04/04 00:46:03;;;;;;;2.55;1.77;;;19.60;52.30;;;;;;5012116;28;20235;-51
2023/04/04 00:48:34;;;;;;;3.47;1.63;;;19.60;52.30;;;;;;5013579;28;20197;-48
2023/04/04 00:51:07;;;;;;;3.15;1.50;;;19.70;52.30;;;;;;5007208;28;20201;-53
2023/04/04 00:53:38;;;;;;;3.10;1.80;;;19.70;52.30;;;;;;4993979;28;20206;-47
2023/04/04 00:56:10;;;;;;;3.13;1.63;;;19.80;52.50;;;;;;4996550;28;20197;-50
2023/04/04 00:58:41;;;;;;;3.15;1.65;;;19.80;52.40;;;;;;5013292;28;20200;-51
2023/04/04 01:01:12;;;;;;;1.45;1.35;;;19.90;52.50;;;;;;5012841;28;20207;-53
2023/04/04 01:03:43;;;;;;;2.17;1.48;;;19.90;52.50;;;;;;5012891;28;20200;-51
2023/04/04 01:06:16;;;;;;;2.05;1.50;;;19.90;52.50;;;;;;5012786;28;20225;-50
2023/04/04 01:08:48;;;;;;;3.53;1.55;;;20.00;52.50;;;;;;5012166;28;20197;-54
2023/04/04 01:11:20;;;;;;;1.83;1.33;;;20.00;52.50;;;;;;5012644;28;20204;-48
2023/04/04 01:13:50;;;;;;;1.65;1.23;;;20.00;52.50;;;;;;5011512;28;20212;-50
2023/04/04 01:16:22;;;;;;;2.35;1.50;;;20.10;52.50;;;;;;5012175;28;20201;-51
2023/04/04 01:18:55;;;;;;;1.85;1.50;;;20.10;52.40;;;;;;5008891;28;20193;-47
2023/04/04 01:21:28;;;;;;;1.80;1.67;;;20.10;52.40;;;;;;4993578;28;20202;-54
2023/04/04 01:24:03;;;;;;;2.38;1.45;;;20.20;52.30;;;;;;4996441;28;20212;-50
2023/04/04 01:26:36;;;;;;;2.10;1.35;;;20.20;52.30;;;;;;5012185;28;20301;-51
2023/04/04 01:29:09;;;;;;;2.80;1.60;;;20.30;52.30;;;;;;5012430;28;20227;-64
2023/04/04 01:31:42;;;;;;;2.92;1.58;;;20.30;52.30;;;;;;4994989;28;20201;-51
2023/04/04 01:34:19;;;;;;;3.42;1.40;;;20.40;52.40;;;;;;4991985;28;20197;-51
2023/04/04 01:36:54;;;;;;;1.77;1.23;;;20.40;52.30;;;;;;5009937;28;20207;-48
2023/04/04 01:39:29;;;;;;;3.00;1.58;;;20.40;52.30;;;;;;5012332;28;20213;-49
2023/04/04 01:42:03;;;;;;;3.08;1.70;;;20.50;52.30;;;;;;5010573;28;20710;-48
2023/04/04 01:44:34;;;;;;;2.88;1.50;;;20.50;52.30;;;;;;5012093;28;20287;-48
2023/04/04 01:47:08;;;;;;;1.65;1.05;;;20.50;52.30;;;;;;5001836;28;20225;-51
2023/04/04 01:49:38;;;;;;;1.75;1.27;;;20.50;52.30;;;;;;4992860;28;20214;-50
2023/04/04 01:52:09;;;;;;;1.88;1.40;;;20.50;52.30;;;;;;4997847;28;20284;-52
2023/04/04 01:54:40;;;;;;;1.83;1.17;;;20.60;52.20;;;;;;5012020;28;20197;-51
2023/04/04 01:57:12;;;;;;;2.70;1.40;;;20.60;52.10;;;;;;5011208;28;20201;-55
2023/04/04 01:59:43;;;;;;;1.95;1.35;;;20.70;52.10;;;;;;5011200;28;20681;-53
2023/04/04 02:02:14;;;;;;;2.35;1.13;;;20.70;52.00;;;;;;5012149;28;20661;-55
2023/04/04 02:04:44;;;;;;;1.50;0.98;;;20.70;52.50;;;;;;5010841;28;20683;-54
2023/04/04 02:07:15;;;;;;;2.22;1.17;;;20.80;51.90;;;;;;4992079;28;20596;-50
2023/04/04 02:09:46;;;;;;;1.75;1.08;;;20.80;51.90;;;;;;5003316;28;20231;-53
2023/04/04 02:12:18;;;;;;;1.58;1.20;;;20.90;51.90;;;;;;5011336;28;20204;-53
2023/04/04 02:14:49;;;;;;;1.45;1.00;;;20.90;51.80;;;;;;5010681;28;20271;-53
2023/04/04 02:17:20;;;;;;;1.02;0.80;;;20.90;51.70;;;;;;5012427;28;20283;-54
2023/04/04 02:19:51;;;;;;;1.70;1.13;;;21.00;51.70;;;;;;4997159;28;20220;-52
2023/04/04 02:22:22;;;;;;;1.48;0.88;;;21.00;51.80;;;;;;5010632;28;20319;-50
2023/04/04 02:24:53;;;;;;;1.65;1.08;;;21.00;51.80;;;;;;5010714;28;20653;-53
2023/04/04 02:27:25;;;;;;;2.17;1.17;;;21.10;51.80;;;;;;5010336;28;20237;-53
2023/04/04 02:29:56;;;;;;;1.58;1.20;;;21.10;51.80;;;;;;5009749;28;20205;-52
2023/04/04 02:32:26;;;;;;;1.40;1.10;;;21.10;51.60;;;;;;5005975;28;20205;-52
2023/04/04 02:34:57;;;;;;;1.98;1.10;;;21.20;51.60;;;;;;5011182;28;20426;-51
2023/04/04 02:37:28;;;;;;;1.73;1.02;;;21.20;51.50;;;;;;5010327;28;20201;-52
2023/04/04 02:39:59;;;;;;;1.20;0.77;;;21.20;51.50;;;;;;5011371;28;20225;-51
2023/04/04 02:42:31;;;;;;;0.70;0.70;;;21.30;51.40;;;;;;5008389;28;20213;-47
2023/04/04 02:45:02;;;;;;;1.10;0.93;;;21.30;51.40;;;;;;4991612;28;20557;-51
2023/04/04 02:47:32;;;;;;;1.15;0.90;;;21.40;51.40;;;;;;4992164;28;20283;-51
2023/04/04 02:50:03;;;;;;;1.45;0.85;;;21.40;51.40;;;;;;5011021;28;20220;-50
2023/04/04 02:52:34;;;;;;;1.65;0.95;;;21.40;51.40;;;;;;5011891;28;20641;-48
2023/04/04 02:55:04;;;;;;;0.90;0.60;;;21.50;51.40;;;;;;5009430;28;20201;-52
2023/04/04 02:57:37;;;;;;;1.48;0.90;;;21.50;51.40;;;;;;5011655;28;20288;-47
2023/04/04 03:00:09;;;;;;;1.30;0.70;;;21.50;51.40;;;;;;5008003;28;20213;-51
2023/04/04 03:02:39;;;;;;;1.48;0.95;;;21.60;51.40;;;;;;5011489;28;20201;-51
2023/04/04 03:05:10;;;;;;;1.08;0.95;;;21.60;51.30;;;;;;5006113;28;20190;-48
2023/04/04 03:07:41;;;;;;;1.48;0.90;;;21.60;51.30;;;;;;4991249;28;20225;-53
2023/04/04 03:10:12;;;;;;;0.80;0.75;;;21.70;51.30;;;;;;4998355;28;20223;-48
2023/04/04 03:12:45;;;;;;;2.40;0.80;;;21.70;51.30;;;;;;5010174;28;20197;-50
2023/04/04 03:15:15;;;;;;;0.98;0.77;;;21.80;51.30;;;;;;5010467;28;20218;-51
2023/04/04 03:17:46;;;;;;;1.05;0.80;;;21.80;51.20;;;;;;5008939;28;20209;-54
2023/04/04 03:20:17;;;;;;;0.90;0.63;;;21.80;51.20;;;;;;5009845;28;20220;-48
2023/04/04 03:22:48;;;;;;;1.17;0.90;;;21.80;51.20;;;;;;5009979;28;20724;-53
2023/04/04 03:25:18;;;;;;;0.68;0.63;;;21.90;51.10;;;;;;5010954;28;20561;-52
2023/04/04 03:27:51;;;;;;;0.85;0.70;;;21.90;50.90;;;;;;5009406;28;20351;-50
2023/04/04 03:30:22;;;;;;;1.25;0.80;;;22.00;50.90;;;;;;5010988;28;20212;-53
2023/04/04 03:32:52;;;;;;;1.23;0.82;;;22.00;50.90;;;;;;5009556;28;20205;-50
2023/04/04 03:35:23;;;;;;;1.38;0.73;;;22.10;50.80;;;;;;5010801;28;20708;-56
2023/04/04 03:37:54;;;;;;;1.15;0.73;;;22.10;50.70;;;;;;5006520;28;20193;-57
2023/04/04 03:40:24;;;;;;;0.70;0.70;;;22.10;50.60;;;;;;5010550;28;20208;-54
2023/04/04 03:42:57;;;;;;;0.82;0.70;;;22.10;50.50;;;;;;5010579;28;20211;-57
2023/04/04 03:45:28;;;;;;;1.25;0.80;;;22.20;50.50;;;;;;5009867;28;20197;-54
2023/04/04 03:47:58;;;;;;;0.80;0.70;;;22.20;50.50;;;;;;5010163;28;20770;-54
2023/04/04 03:50:29;;;;;;;0.95;0.60;;;22.30;50.50;;;;;;5008848;28;20688;-49
2023/04/04 03:53:00;;;;;;;0.85;0.65;;;22.30;50.50;;;;;;5010546;28;20255;-50
2023/04/04 03:55:30;;;;;;;1.15;0.70;;;22.40;50.50;;;;;;5009502;28;20197;-55
2023/04/04 03:58:03;;;;;;;1.48;0.60;;;22.40;50.40;;;;;;5010891;28;20193;-50
2023/04/04 04:00:34;;;;;;;0.70;0.70;;;22.40;50.40;;;;;;5005446;28;20221;-57
2023/04/04 04:03:04;;;;;;;0.57;0.57;;;22.40;50.40;;;;;;4991691;28;20201;-50
2023/04/04 04:05:35;;;;;;;0.98;0.70;;;22.50;50.40;;;;;;4999867;28;20201;-55
2023/04/04 04:08:06;;;;;;;2.00;0.63;;;22.50;50.20;;;;;;4990585;28;20233;-52
2023/04/04 04:10:37;;;;;;;0.60;0.60;;;22.60;50.20;;;;;;4993291;28;20217;-51
2023/04/04 04:13:09;;;;;;;0.50;0.50;;;22.60;50.10;;;;;;5006480;28;20200;-55
2023/04/04 04:15:40;;;;;;;1.10;0.80;;;22.60;50.00;;;;;;5009967;28;20268;-55
2023/04/04 04:18:11;;;;;;;1.00;0.70;;;22.70;49.90;;;;;;5009341;28;20661;-55
2023/04/04 04:20:41;;;;;;;0.50;0.47;;;22.70;49.90;;;;;;5008430;28;20221;-50
2023/04/04 04:23:12;;;;;;;0.98;0.50;;;22.70;49.70;;;;;;4996806;28;20197;-51
2023/04/04 04:25:43;;;;;;;0.60;0.50;;;22.70;49.60;;;;;;5013246;28;20839;-52
2023/04/04 04:28:15;;;;;;;0.40;0.40;;;22.80;50.20;;;;;;5013239;28;20224;-52
2023/04/04 04:30:46;;;;;;;1.45;0.60;;;22.80;49.60;;;;;;5013714;28;20205;-50
2023/04/04 04:33:16;;;;;;;1.85;0.68;;;22.80;49.50;;;;;;5014368;28;20424;-51
2023/04/04 04:35:47;;;;;;;0.93;0.70;;;22.90;49.40;;;;;;5010683;28;20188;-51
2023/04/04 04:38:18;;;;;;;1.35;0.50;;;22.90;49.40;;;;;;5008955;28;20205;-54
2023/04/04 04:40:49;;;;;;;1.85;0.60;;;22.90;49.40;;;;;;4996217;28;20214;-54
2023/04/04 04:43:21;;;;;;;0.93;0.52;;;23.00;49.40;;;;;;4993078;28;20226;-53
2023/04/04 04:45:52;;;;;;;0.82;0.52;;;23.00;49.30;;;;;;5002319;28;20200;-48
2023/04/04 04:48:22;;;;;;;0.85;0.50;;;23.00;49.20;;;;;;5013994;28;20224;-53
2023/04/04 04:50:53;;;;;;;0.60;0.60;;;23.00;49.00;;;;;;5011448;28;20219;-52
2023/04/04 04:53:24;;;;;;;0.60;0.60;;;23.10;49.10;;;;;;5012996;28;20197;-52
2023/04/04 04:55:55;;;;;;;0.75;0.52;;;23.00;48.90;;;;;;5013098;28;20185;-54
2023/04/04 04:58:27;;;;;;;0.73;0.50;;;23.10;49.10;;;;;;4993972;28;20213;-49
2023/04/04 05:00:58;;;;;;;0.82;0.52;;;23.10;49.00;;;;;;4993379;28;20206;-54
2023/04/04 05:03:29;;;;;;;0.47;0.43;;;23.10;49.60;;;;;;5008972;28;20201;-56
2023/04/04 05:06:00;;;;;;;0.70;0.60;;;23.10;48.90;;;;;;5003064;28;20193;-52
2023/04/04 05:08:30;;;;;;;2.58;0.63;;;23.10;48.90;;;;;;5005021;28;20228;-52
2023/04/04 05:11:01;;;;;;;1.23;0.60;;;23.10;48.90;;;;;;5012741;28;20213;-53
2023/04/04 05:13:33;;;;;;;1.23;0.55;;;23.10;48.90;;;;;;5010914;28;20212;-55
2023/04/04 05:16:04;;;;;;;0.98;0.70;;;23.20;48.90;;;;;;5013019;28;20193;-50
2023/04/04 05:18:35;;;;;;;1.23;0.60;;;23.10;48.90;;;;;;5012187;28;20216;-52
2023/04/04 05:21:06;;;;;;;1.52;0.70;;;23.20;48.90;;;;;;5012106;28;20192;-54
2023/04/04 05:23:37;;;;;;;0.85;0.60;;;23.10;48.80;;;;;;5012661;28;20192;-51
2023/04/04 05:26:07;;;;;;;0.55;0.38;;;23.20;48.90;;;;;;5011545;28;20189;-52
2023/04/04 05:28:40;;;;;;;1.15;0.60;;;23.20;48.80;;;;;;5012330;28;20227;-51
2023/04/04 05:31:10;;;;;;;1.15;0.65;;;23.20;48.70;;;;;;5012209;28;20684;-54
2023/04/04 05:33:41;;;;;;;0.80;0.60;;;23.20;48.70;;;;;;5013255;28;20197;-53
2023/04/04 05:36:12;;;;;;;1.92;0.80;;;23.20;48.80;;;;;;5010406;28;20189;-50
2023/04/04 05:38:43;;;;;;;2.53;0.65;;;23.20;48.80;;;;;;5013190;28;20224;-50
2023/04/04 05:41:13;;;;;;;0.70;0.50;;;23.20;48.80;;;;;;5011558;28;20204;-52
2023/04/04 05:43:46;;;;;;;0.82;0.60;;;23.20;48.70;;;;;;5012436;28;20209;-51
2023/04/04 05:46:16;;;;;;;1.23;0.52;;;23.10;48.70;;;;;;5008842;28;20189;-54
2023/04/04 05:48:47;;;;;;;2.00;0.50;;;23.20;48.70;;;;;;4992063;28;20724;-58
2023/04/04 05:51:18;;;;;;;2.03;0.47;;;23.10;48.30;;;;;;4992605;28;20194;-55
2023/04/04 05:53:49;;;;;;;1.23;0.47;;;23.10;46.70;;;;;;5008249;28;20579;-59
2023/04/04 05:56:20;;;;;;;2.20;0.47;;;23.00;45.60;;;;;;5012362;28;20196;-59
2023/04/04 05:58:53;;;;;;;0.70;0.30;;;22.90;45.00;;;;;;5011067;28;20296;-57
2023/04/04 06:01:24;;;;;;;1.20;0.40;;;22.70;44.60;;;;;;5012101;28;20223;-48
2023/04/04 06:03:54;;;;;;;0.95;0.60;;;22.50;44.50;;;;;;5009555;28;20207;-54
2023/04/04 06:06:26;;;;;;;0.75;0.40;;;22.40;44.70;;;;;;5001980;28;20658;-53
2023/04/04 06:08:57;;;;;;;1.00;0.50;;;22.20;44.80;;;;;;5001693;28;20228;-52
2023/04/04 06:11:27;;;;;;;2.05;0.45;;;22.10;45.00;;;;;;5011807;28;20552;-55
2023/04/04 06:14:00;;;;;;;0.28;0.20;;;22.00;45.40;;;;;;5012352;28;20201;-53
2023/04/04 06:16:30;;;;;;;0.85;0.47;;;21.90;45.80;;;;;;5008686;28;20200;-58
2023/04/04 06:19:01;;;;;;;0.47;0.30;;;21.90;46.00;;;;;;5011747;28;20229;-56
2023/04/04 06:21:32;;;;;;;0.60;0.35;;;21.90;46.30;;;;;;5009145;28;20192;-56
2023/04/04 06:24:03;;;;;;;0.47;0.30;;;21.90;46.40;;;;;;5011420;28;20193;-56
2023/04/04 06:26:33;;;;;;;0.75;0.20;;;21.90;46.60;;;;;;5009638;28;20569;-53
2023/04/04 06:29:06;;;;;;;1.58;0.50;;;21.90;46.70;;;;;;5011499;28;20232;-57
2023/04/04 06:31:36;;;;;;;1.15;0.30;;;21.90;46.80;;;;;;5009879;28;20193;-57
2023/04/04 06:34:07;;;;;;;1.08;0.25;;;21.90;46.90;;;;;;5010932;28;20551;-57
2023/04/04 06:36:38;;;;;;;0.90;0.30;;;21.90;46.90;;;;;;5010294;28;20197;-57
2023/04/04 06:39:09;;;;;;;1.60;0.32;;;21.90;47.00;;;;;;5011184;28;20719;-57
2023/04/04 06:41:39;;;;;;;0.47;0.38;;;21.90;47.00;;;;;;5011112;28;20620;-57
2023/04/04 06:44:15;;;;;;;0.47;0.20;;;22.00;47.10;;;;;;5010202;28;20208;-56
2023/04/04 06:46:45;;;;;;;0.60;0.40;;;22.00;47.10;;;;;;5010897;28;20641;-56
2023/04/04 06:49:16;;;;;;;0.57;0.25;;;22.00;47.20;;;;;;5009214;28;20232;-58
2023/04/04 06:51:49;;;;;;;0.40;0.30;;;22.00;47.10;;;;;;5011491;28;20194;-57
2023/04/04 06:54:20;;;;;;;0.85;0.30;;;22.00;47.10;;;;;;5010488;28;20204;-57
2023/04/04 06:56:51;;;;;;;0.77;0.40;;;22.00;47.10;;;;;;5011167;28;20199;-57
2023/04/04 06:59:24;;;;;;;0.30;0.30;;;22.00;47.10;;;;;;5009621;28;20307;-57
2023/04/04 07:01:54;;;;;;;0.57;0.35;;;22.00;47.10;;;;;;5010853;28;20208;-57
2023/04/04 07:04:25;;;;;;;0.15;0.15;;;22.00;47.00;;;;;;5010352;28;20192;-57
2023/04/04 07:06:56;;;;;;;0.47;0.30;;;22.00;47.10;;;;;;5004512;28;20240;-57
2023/04/04 07:09:27;;;;;;;0.35;0.30;;;22.00;47.20;;;;;;4991667;28;20291;-57
2023/04/04 07:11:57;;;;;;;0.88;0.40;;;22.00;47.20;;;;;;5005896;28;20197;-53
2023/04/04 07:14:30;;;;;;;1.08;0.30;;;22.00;47.20;;;;;;4991766;28;20201;-53
2023/04/04 07:17:01;;;;;;;0.40;0.30;;;22.00;47.30;;;;;;4992132;28;20276;-55
2023/04/04 07:19:32;;;;;;;0.30;0.20;;;22.00;47.30;;;;;;4991780;28;20710;-52
2023/04/04 07:22:02;;;;;;;1.17;0.38;;;22.00;47.30;;;;;;4991540;28;20541;-58
2023/04/04 07:24:33;;;;;;;0.30;0.30;;;22.00;47.30;;;;;;4991573;28;20646;-55
2023/04/04 07:27:04;;;;;;;0.95;0.38;;;22.00;47.30;;;;;;4991622;28;20193;-56
2023/04/04 07:29:36;;;;;;;0.40;0.40;;;22.00;47.30;;;;;;4991973;28;20229;-56
2023/04/04 07:32:07;;;;;;;0.30;0.30;;;22.00;47.30;;;;;;4991812;28;20650;-55
2023/04/04 07:34:38;;;;;;;0.88;0.50;;;22.00;47.30;;;;;;4993526;28;20201;-54
2023/04/04 07:37:08;;;;;;;0.45;0.20;;;22.00;47.40;;;;;;5011487;28;20924;-56
2023/04/04 07:39:39;;;;;;;0.30;0.30;;;22.00;47.30;;;;;;5008011;28;20216;-54
2023/04/04 07:42:10;;;;;;;0.45;0.38;;;22.00;47.40;;;;;;5011469;28;20201;-55
2023/04/04 07:44:42;;;;;;;0.63;0.30;;;21.90;47.40;;;;;;5011555;28;20197;-55
2023/04/04 07:47:13;;;;;;;0.57;0.45;;;21.90;47.40;;;;;;5011778;28;20201;-54
2023/04/04 07:49:44;;;;;;;0.40;0.38;;;21.90;47.40;;;;;;5011457;28;20224;-57
2023/04/04 07:52:14;;;;;;;1.50;0.50;;;21.90;47.50;;;;;;5011298;28;20669;-54
2023/04/04 07:54:46;;;;;;;0.30;0.30;;;21.90;47.50;;;;;;5011266;28;20196;-56
2023/04/04 07:57:16;;;;;;;0.50;0.40;;;21.90;47.50;;;;;;5000284;28;20249;-57
2023/04/04 07:59:49;;;;;;;0.55;0.40;;;21.90;47.60;;;;;;4994010;28;20213;-57
2023/04/04 08:02:20;;;;;;;0.38;0.30;;;21.90;47.60;;;;;;4995526;28;20201;-54
2023/04/04 08:04:50;;;;;;;0.40;0.30;;;21.90;47.60;;;;;;4999065;28;20228;-57
2023/04/04 08:07:21;;;;;;;0.43;0.43;;;21.90;47.60;;;;;;5014794;28;20284;-56
2023/04/04 08:09:52;;;;;;;0.20;0.20;;;21.80;47.50;;;;;;5014561;28;20240;-56
2023/04/04 08:12:22;;;;;;;0.45;0.40;;;21.80;47.50;;;;;;5013853;28;20204;-55
2023/04/04 08:14:55;;;;;;;1.25;0.25;;;21.80;47.50;;;;;;5014456;28;20197;-58
2023/04/04 08:17:25;;;;;;;0.50;0.40;;;21.80;47.60;;;;;;5014357;28;20200;-56
2023/04/04 08:19:56;;;;;;;0.88;0.60;;;21.70;47.50;;;;;;4998328;28;20232;-54
2023/04/04 08:22:27;;;;;;;0.30;0.30;;;21.80;47.60;;;;;;4995067;28;20593;-57
2023/04/04 08:24:58;;;;;;;0.52;0.50;;;21.70;47.60;;;;;;4994675;28;20772;-57
2023/04/04 08:27:29;;;;;;;1.20;0.40;;;21.70;47.60;;;;;;4995007;28;20197;-56
2023/04/04 08:30:02;;;;;;;0.47;0.32;;;21.70;47.60;;;;;;4995475;28;20221;-57
2023/04/04 08:32:33;;;;;;;1.85;0.43;;;21.70;47.70;;;;;;4994725;28;20193;-58
2023/04/04 08:35:04;;;;;;;0.65;0.40;;;21.70;47.70;;;;;;4999682;28;20388;-58
2023/04/04 08:37:36;;;;;;;1.00;0.45;;;21.70;47.80;;;;;;5014416;28;20200;-55
2023/04/04 08:40:07;;;;;;;0.88;0.45;;;21.70;47.80;;;;;;5013884;28;20212;-58
2023/04/04 08:42:42;;;;;;;1.27;0.40;;;21.60;47.70;;;;;;5013597;28;20216;-57
2023/04/04 08:45:18;;;;;;;1.63;0.52;;;21.60;47.80;;;;;;5013594;28;20200;-58
2023/04/04 08:47:51;;;;;;;1.73;0.60;;;21.60;47.70;;;;;;5013410;28;20201;-58
2023/04/04 08:50:24;;;;;;;0.98;0.52;;;21.60;47.70;;;;;;5012961;28;20213;-57
2023/04/04 08:52:55;;;;;;;1.52;0.60;;;21.60;47.80;;;;;;5013978;28;20197;-54
2023/04/04 08:55:27;;;;;;;2.05;0.73;;;21.50;47.70;;;;;;5013627;28;20201;-56
2023/04/04 08:57:58;;;;;;;1.42;0.77;;;21.60;47.80;;;;;;5012014;28;20197;-55
2023/04/04 09:00:30;;;;;;;2.47;0.88;;;21.50;47.80;;;;;;5002007;28;20575;-54
2023/04/04 09:03:07;;;;;;;1.05;0.85;;;21.50;47.90;;;;;;5012661;28;20859;-55
2023/04/04 09:05:38;;;;;;;0.77;0.63;;;21.50;47.90;;;;;;5009920;28;20196;-56
2023/04/04 09:08:09;;;;;;;1.75;0.80;;;21.40;47.90;;;;;;5013596;28;20216;-56
2023/04/04 09:10:42;;;;;;;1.52;0.80;;;21.40;48.00;;;;;;5010729;28;20221;-54
2023/04/04 09:13:13;;;;;;;1.25;0.90;;;21.40;48.00;;;;;;4994677;28;20403;-54
2023/04/04 09:15:50;;;;;;;2.15;1.02;;;21.40;48.10;;;;;;4992916;28;20197;-56
2023/04/04 09:18:20;;;;;;;1.92;0.70;;;21.40;48.10;;;;;;4996084;28;20189;-57
2023/04/04 09:20:51;;;;;;;1.13;0.75;;;21.40;48.10;;;;;;4993238;28;20221;-55
2023/04/04 09:23:23;;;;;;;0.88;0.68;;;21.40;48.10;;;;;;5009990;28;20208;-54
2023/04/04 09:25:55;;;;;;;1.10;0.70;;;21.30;48.00;;;;;;5012173;28;20203;-55
2023/04/04 09:28:26;;;;;;;1.30;0.80;;;21.30;48.00;;;;;;5008888;28;20220;-54
2023/04/04 09:31:01;;;;;;;1.73;0.80;;;21.30;48.10;;;;;;5012719;28;20224;-55
2023/04/04 09:33:32;;;;;;;1.52;0.80;;;21.30;48.10;;;;;;5010633;28;20203;-57
2023/04/04 09:36:08;;;;;;;1.45;0.75;;;21.30;48.10;;;;;;5012248;28;20204;-56
2023/04/04 09:38:41;;;;;;;0.70;0.70;;;21.20;48.10;;;;;;5011180;28;20200;-56
2023/04/04 09:41:15;;;;;;;1.27;0.73;;;21.20;48.10;;;;;;5012474;28;20203;-53
2023/04/04 09:43:48;;;;;;;1.20;0.75;;;21.20;48.10;;;;;;5008552;28;20561;-55
2023/04/04 09:46:22;;;;;;;1.55;0.88;;;21.20;48.20;;;;;;5012644;28;20672;-51
2023/04/04 09:48:54;;;;;;;1.08;0.73;;;21.20;48.20;;;;;;5011148;28;20220;-53
2023/04/04 09:51:24;;;;;;;1.23;0.90;;;21.10;48.10;;;;;;5011189;28;20284;-54
2023/04/04 09:53:55;;;;;;;1.40;0.93;;;21.10;48.20;;;;;;5003050;28;20211;-53
2023/04/04 09:56:27;;;;;;;4.18;1.17;;;21.10;48.20;;;;;;5005931;28;20291;-57
2023/04/04 09:58:58;;;;;;;12.05;1.67;;;21.10;49.00;;;;;;5012089;28;20200;-49
2023/04/04 10:01:32;;;;;;;5.13;1.20;;;21.10;49.50;;;;;;5011131;28;20288;-53
2023/04/04 10:04:05;;;;;;;2.35;1.20;;;21.10;49.30;;;;;;5004671;28;20241;-52
2023/04/04 10:06:37;;;;;;;2.97;1.17;;;21.10;49.20;;;;;;5008913;28;20232;-51
2023/04/04 10:09:10;;;;;;;3.60;1.13;;;21.10;49.20;;;;;;5011414;28;20228;-54
2023/04/04 10:11:41;;;;;;;3.97;1.30;;;21.10;49.10;;;;;;5010540;28;20653;-54
2023/04/04 10:14:12;;;;;;;5.25;1.23;;;21.10;49.10;;;;;;5012096;28;20596;-56
2023/04/04 10:16:47;;;;;;;3.63;1.20;;;21.10;49.20;;;;;;5000775;28;20193;-51
2023/04/04 10:19:19;;;;;;;3.00;1.50;;;21.00;49.20;;;;;;5008917;28;20669;-57
2023/04/04 10:21:51;;;;;;;2.78;1.40;;;21.00;49.20;;;;;;5011624;28;20275;-52
2023/04/04 10:24:22;;;;;;;2.33;1.23;;;21.00;49.20;;;;;;5010408;28;20197;-53
2023/04/04 10:26:53;;;;;;;2.67;1.45;;;21.00;49.30;;;;;;5012207;28;20199;-55
2023/04/04 10:29:24;;;;;;;3.25;1.60;;;21.00;49.30;;;;;;5010198;28;20232;-52
2023/04/04 10:32:04;;;;;;;4.70;2.20;;;21.00;49.30;;;;;;5012440;28;20197;-54
2023/04/04 10:34:43;;;;;;;4.65;1.70;;;20.90;49.40;;;;;;5009803;28;20220;-56
2023/04/04 10:37:17;;;;;;;3.60;1.65;;;20.90;49.30;;;;;;5009932;28;20204;-53
2023/04/04 10:39:53;;;;;;;6.15;2.20;;;20.90;49.40;;;;;;5009270;28;20244;-50
2023/04/04 10:42:27;;;;;;;4.53;2.00;;;20.90;49.40;;;;;;5010848;28;20196;-49
2023/04/04 10:44:59;;;;;;;3.03;1.58;;;20.90;49.50;;;;;;4998678;28;20643;-52
2023/04/04 10:47:33;;;;;;;7.30;1.80;;;20.90;49.50;;;;;;5010314;28;20209;-53
2023/04/04 10:50:06;;;;;;;4.10;2.28;;;20.90;49.50;;;;;;5011510;28;20232;-53
2023/04/04 10:52:41;;;;;;;6.60;2.42;;;20.80;49.50;;;;;;5010445;28;20220;-51
2023/04/04 10:55:14;;;;;;;4.55;2.38;;;20.80;49.70;;;;;;4991802;28;20204;-48
2023/04/04 10:57:49;;;;;;;3.28;2.35;;;20.80;49.80;;;;;;5003348;28;20209;-52
2023/04/04 11:00:22;;;;;;;6.53;2.45;;;20.80;49.90;;;;;;5010656;28;20224;-51
2023/04/04 11:02:58;;;;;;;4.75;2.42;;;20.80;49.90;;;;;;5009784;28;20212;-55
2023/04/04 11:05:32;;;;;;;3.90;2.28;;;20.70;49.90;;;;;;5010420;28;20203;-55
2023/04/04 11:08:04;;;;;;;5.43;2.50;;;20.70;49.90;;;;;;5008617;28;20204;-53
2023/04/04 11:10:36;;;;;;;5.25;2.28;;;20.70;49.90;;;;;;5006178;28;20228;-56
2023/04/04 11:13:12;;;;;;;4.35;1.80;;;20.70;49.90;;;;;;5009845;28;20220;-50
2023/04/04 11:15:54;;;;;;;5.05;2.40;;;20.60;49.90;;;;;;5010391;28;20235;-50
2023/04/04 11:18:50;;;;;;;3.28;2.10;;;20.60;49.80;;;;;;5011066;28;20196;-56
2023/04/04 11:21:22;;;;;;;4.50;2.15;;;20.60;49.90;;;;;;4991482;28;20201;-51
2023/04/04 11:24:17;;;;;;;3.83;2.30;;;20.60;49.80;;;;;;4990245;28;20205;-55
2023/04/04 11:26:48;;;;;;;5.05;2.30;;;20.60;49.90;;;;;;4990703;28;20194;-54
2023/04/04 11:29:54;;;;;;;5.28;2.10;;;20.60;49.80;;;;;;4991705;28;20742;-53
2023/04/04 11:32:45;;;;;;;3.38;1.88;;;20.50;49.80;;;;;;4990616;28;20209;-55
2023/04/04 11:35:17;;;;;;;2.97;1.85;;;20.50;49.80;;;;;;5002174;28;20259;-54
2023/04/04 11:38:02;;;;;;;2.40;1.95;;;20.50;49.80;;;;;;5014534;28;20204;-51
2023/04/04 11:40:40;;;;;;;3.08;2.10;;;20.40;49.80;;;;;;5013724;28;20212;-56
2023/04/04 11:43:15;;;;;;;3.47;1.90;;;20.40;49.80;;;;;;5013422;28;20672;-54
2023/04/04 11:45:49;;;;;;;3.30;2.00;;;20.40;49.80;;;;;;5014009;28;20192;-54
2023/04/04 11:48:21;;;;;;;2.47;1.73;;;20.30;49.80;;;;;;5012132;28;20201;-50
2023/04/04 11:50:56;;;;;;;5.63;2.03;;;20.30;49.80;;;;;;5013251;28;20225;-52
2023/04/04 11:53:26;;;;;;;2.67;1.95;;;20.30;49.80;;;;;;5008684;28;20553;-56
2023/04/04 11:55:57;;;;;;;4.18;1.83;;;20.30;49.80;;;;;;4995176;28;20658;-50
2023/04/04 11:58:29;;;;;;;2.83;1.70;;;20.30;49.80;;;;;;5000555;28;20680;-54
2023/04/04 12:01:00;;;;;;;3.20;1.65;;;20.20;49.70;;;;;;5014562;28;20735;-52
2023/04/04 12:03:31;;;;;;;3.30;1.80;;;20.20;49.70;;;;;;5013661;28;20200;-50
2023/04/04 12:06:04;;;;;;;3.00;1.65;;;20.20;49.70;;;;;;5014209;28;20629;-56
2023/04/04 12:08:35;;;;;;;2.78;1.88;;;20.20;49.80;;;;;;5014138;28;20211;-49
2023/04/04 12:11:09;;;;;;;3.13;1.90;;;20.20;49.80;;;;;;4999804;28;20684;-51
2023/04/04 12:13:45;;;;;;;2.95;1.77;;;20.10;49.80;;;;;;4995394;28;20229;-50
2023/04/04 12:16:16;;;;;;;3.95;1.80;;;20.10;49.70;;;;;;4994723;28;20228;-51
2023/04/04 12:18:48;;;;;;;4.85;1.80;;;20.10;49.80;;;;;;4994658;28;20197;-50
2023/04/04 12:21:20;;;;;;;2.15;1.55;;;20.00;49.70;;;;;;4995004;28;20555;-53
2023/04/04 12:23:51;;;;;;;2.85;1.70;;;20.00;49.80;;;;;;4995283;28;20596;-52
2023/04/04 12:26:22;;;;;;;2.30;1.67;;;20.00;49.80;;;;;;4995251;28;20193;-51
2023/04/04 12:28:55;;;;;;;3.05;1.73;;;20.00;49.80;;;;;;4995266;28;20609;-52
2023/04/04 12:31:27;;;;;;;2.65;1.70;;;20.00;49.80;;;;;;4995758;28;20204;-55
2023/04/04 12:33:58;;;;;;;3.90;1.77;;;19.90;49.70;;;;;;4994810;28;20204;-52
2023/04/04 12:36:32;;;;;;;3.80;2.15;;;19.90;49.70;;;;;;5010797;28;20215;-52
2023/04/04 12:39:04;;;;;;;2.97;1.33;;;19.90;49.80;;;;;;5014252;28;20228;-54
2023/04/04 12:41:36;;;;;;;3.15;1.85;;;19.90;49.80;;;;;;5014151;28;20605;-51
2023/04/04 12:44:08;;;;;;;3.28;1.83;;;19.90;49.80;;;;;;5014170;28;20259;-56
2023/04/04 12:46:39;;;;;;;2.45;1.52;;;19.80;49.70;;;;;;5012840;28;20200;-57
2023/04/04 12:49:12;;;;;;;2.33;1.45;;;19.80;49.70;;;;;;5013572;28;20221;-51
2023/04/04 12:51:47;;;;;;;2.67;1.73;;;19.80;49.70;;;;;;5013811;28;20251;-54
2023/04/04 12:54:29;;;;;;;3.17;1.73;;;19.80;49.70;;;;;;5013850;28;20202;-56
2023/04/04 12:57:02;;;;;;;2.42;1.52;;;19.80;49.70;;;;;;5004106;28;20285;-54
2023/04/04 12:59:34;;;;;;;3.63;1.60;;;19.80;49.70;;;;;;5009981;28;20213;-53
2023/04/04 13:02:07;;;;;;;2.25;1.45;;;19.70;49.70;;;;;;5012610;28;20192;-52
2023/04/04 13:04:39;;;;;;;2.35;1.52;;;19.70;49.70;;;;;;5008023;28;20279;-54
2023/04/04 13:07:26;;;;;;;3.40;1.55;;;19.70;49.80;;;;;;5003399;28;20197;-57
2023/04/04 13:09:58;;;;;;;1.98;1.20;;;19.60;49.70;;;;;;5002664;28;20307;-50
2023/04/04 13:12:49;;;;;;;2.03;1.23;;;19.60;49.70;;;;;;5002884;28;20235;-50